Aviation Digital Data Service (ADDS)

Output produced by METARs form (0249 UTC 20 January 2022)
found at http://www.aviationweather.gov/metar/data/
 
METAR text: RJTI 200200Z 30004KT 270V330 9999 FEW030 06/M06 Q1010
Conditions at: RJTI (TOKYO HELIPORT , JP) observed 0200 UTC 20 January 2022
Temperature: 6.0°C (43°F)
Dewpoint: -6.0°C (21°F) [RH = 42%]
Pressure (altimeter): 29.82 inches Hg (1010.0 mb)
Winds: from the WNW (300 degrees) at 5 MPH (4 knots; 2.1 m/s)
Visibility: 6 or more miles (10+ km)
Ceiling: at least 12,000 feet AGL
Clouds: few clouds at 3000 feet AGL
Weather: no significant weather observed at this time